sensor_id;sensor_type;location;lat;lon;timestamp;P1;durP1;ratioP1;P2;durP2;ratioP2
65753;SDS011;69207;47.502;18.940;2023-07-31T00:00:55;3.45;;;2.45;;
65753;SDS011;69207;47.502;18.940;2023-07-31T00:01:58;3.20;;;2.60;;
65753;SDS011;69207;47.502;18.940;2023-07-31T00:03:01;3.80;;;2.60;;
65753;SDS011;69207;47.502;18.940;2023-07-31T00:04:05;3.65;;;2.62;;
65753;SDS011;69207;47.502;18.940;2023-07-31T00:05:08;3.67;;;2.60;;
65753;SDS011;69207;47.502;18.940;2023-07-31T00:06:12;2.67;;;2.33;;
65753;SDS011;69207;47.502;18.940;2023-07-31T00:07:15;4.07;;;2.12;;
65753;SDS011;69207;47.502;18.940;2023-07-31T00:08:18;3.03;;;2.58;;
65753;SDS011;69207;47.502;18.940;2023-07-31T00:09:21;5.00;;;2.50;;
65753;SDS011;69207;47.502;18.940;2023-07-31T00:10:24;2.95;;;2.47;;
65753;SDS011;69207;47.502;18.940;2023-07-31T00:11:27;2.62;;;2.35;;
65753;SDS011;69207;47.502;18.940;2023-07-31T00:12:30;5.22;;;2.58;;
65753;SDS011;69207;47.502;18.940;2023-07-31T00:13:33;2.58;;;2.20;;
65753;SDS011;69207;47.502;18.940;2023-07-31T00:14:35;3.33;;;2.60;;
65753;SDS011;69207;47.502;18.940;2023-07-31T00:15:38;2.62;;;2.42;;
65753;SDS011;69207;47.502;18.940;2023-07-31T00:16:41;3.15;;;2.40;;
65753;SDS011;69207;47.502;18.940;2023-07-31T00:17:44;2.72;;;2.40;;
65753;SDS011;69207;47.502;18.940;2023-07-31T00:18:47;4.30;;;2.47;;
65753;SDS011;69207;47.502;18.940;2023-07-31T00:19:50;4.82;;;2.67;;
65753;SDS011;69207;47.502;18.940;2023-07-31T00:20:53;2.37;;;1.87;;
65753;SDS011;69207;47.502;18.940;2023-07-31T00:21:56;2.83;;;2.45;;
65753;SDS011;69207;47.502;18.940;2023-07-31T00:22:59;2.40;;;2.20;;
65753;SDS011;69207;47.502;18.940;2023-07-31T00:24:02;2.60;;;2.40;;
65753;SDS011;69207;47.502;18.940;2023-07-31T00:25:05;2.50;;;2.30;;
65753;SDS011;69207;47.502;18.940;2023-07-31T00:26:08;3.28;;;2.40;;
65753;SDS011;69207;47.502;18.940;2023-07-31T00:27:11;3.05;;;2.65;;
65753;SDS011;69207;47.502;18.940;2023-07-31T00:28:14;6.45;;;2.70;;
65753;SDS011;69207;47.502;18.940;2023-07-31T00:29:18;3.10;;;2.10;;
65753;SDS011;69207;47.502;18.940;2023-07-31T00:30:21;2.53;;;2.17;;
65753;SDS011;69207;47.502;18.940;2023-07-31T00:31:25;2.97;;;2.12;;
65753;SDS011;69207;47.502;18.940;2023-07-31T00:32:28;2.67;;;2.05;;
65753;SDS011;69207;47.502;18.940;2023-07-31T00:33:31;3.25;;;2.22;;
65753;SDS011;69207;47.502;18.940;2023-07-31T00:34:34;3.70;;;2.20;;
65753;SDS011;69207;47.502;18.940;2023-07-31T00:35:37;2.65;;;2.25;;
65753;SDS011;69207;47.502;18.940;2023-07-31T00:36:40;4.85;;;2.30;;
65753;SDS011;69207;47.502;18.940;2023-07-31T00:37:43;2.45;;;2.22;;
65753;SDS011;69207;47.502;18.940;2023-07-31T00:38:46;3.25;;;2.28;;
65753;SDS011;69207;47.502;18.940;2023-07-31T00:39:49;3.33;;;2.30;;
65753;SDS011;69207;47.502;18.940;2023-07-31T00:40:52;5.07;;;2.37;;
65753;SDS011;69207;47.502;18.940;2023-07-31T00:41:55;4.07;;;1.90;;
65753;SDS011;69207;47.502;18.940;2023-07-31T00:42:58;3.53;;;2.20;;
65753;SDS011;69207;47.502;18.940;2023-07-31T00:44:04;4.68;;;2.33;;
65753;SDS011;69207;47.502;18.940;2023-07-31T00:45:07;5.07;;;2.00;;
65753;SDS011;69207;47.502;18.940;2023-07-31T00:46:10;4.45;;;2.55;;
65753;SDS011;69207;47.502;18.940;2023-07-31T00:47:14;4.85;;;2.80;;
65753;SDS011;69207;47.502;18.940;2023-07-31T00:48:17;5.12;;;3.08;;
65753;SDS011;69207;47.502;18.940;2023-07-31T00:49:20;3.78;;;2.80;;
65753;SDS011;69207;47.502;18.940;2023-07-31T00:50:24;2.83;;;2.50;;
65753;SDS011;69207;47.502;18.940;2023-07-31T00:51:28;3.70;;;2.75;;
65753;SDS011;69207;47.502;18.940;2023-07-31T00:52:31;2.95;;;2.60;;
65753;SDS011;69207;47.502;18.940;2023-07-31T00:53:34;4.32;;;2.83;;
65753;SDS011;69207;47.502;18.940;2023-07-31T00:54:38;3.85;;;2.95;;
65753;SDS011;69207;47.502;18.940;2023-07-31T00:55:42;7.45;;;3.37;;
65753;SDS011;69207;47.502;18.940;2023-07-31T00:56:45;3.12;;;2.70;;
65753;SDS011;69207;47.502;18.940;2023-07-31T00:57:51;4.75;;;2.65;;
65753;SDS011;69207;47.502;18.940;2023-07-31T00:58:55;3.53;;;2.83;;
65753;SDS011;69207;47.502;18.940;2023-07-31T00:59:59;3.55;;;3.00;;
65753;SDS011;69207;47.502;18.940;2023-07-31T01:01:03;4.68;;;3.20;;
65753;SDS011;69207;47.502;18.940;2023-07-31T01:02:06;4.43;;;3.08;;
65753;SDS011;69207;47.502;18.940;2023-07-31T01:03:09;3.37;;;2.80;;
65753;SDS011;69207;47.502;18.940;2023-07-31T01:04:13;3.25;;;2.87;;
65753;SDS011;69207;47.502;18.940;2023-07-31T01:05:17;3.95;;;2.95;;
65753;SDS011;69207;47.502;18.940;2023-07-31T01:07:34;2.92;;;2.12;;
65753;SDS011;69207;47.502;18.940;2023-07-31T01:08:59;4.93;;;2.95;;
65753;SDS011;69207;47.502;18.940;2023-07-31T01:11:30;3.35;;;2.65;;
65753;SDS011;69207;47.502;18.940;2023-07-31T01:12:35;3.78;;;2.62;;
65753;SDS011;69207;47.502;18.940;2023-07-31T01:13:42;3.00;;;2.37;;
65753;SDS011;69207;47.502;18.940;2023-07-31T01:15:03;2.37;;;2.17;;
65753;SDS011;69207;47.502;18.940;2023-07-31T01:16:13;3.22;;;2.78;;
65753;SDS011;69207;47.502;18.940;2023-07-31T01:17:16;3.12;;;2.62;;
65753;SDS011;69207;47.502;18.940;2023-07-31T01:18:19;2.90;;;2.60;;
65753;SDS011;69207;47.502;18.940;2023-07-31T01:19:24;3.45;;;2.53;;
65753;SDS011;69207;47.502;18.940;2023-07-31T01:20:31;4.10;;;2.40;;
65753;SDS011;69207;47.502;18.940;2023-07-31T01:26:28;3.00;;;2.10;;
65753;SDS011;69207;47.502;18.940;2023-07-31T01:27:38;2.90;;;2.10;;
65753;SDS011;69207;47.502;18.940;2023-07-31T01:28:50;2.28;;;1.90;;
65753;SDS011;69207;47.502;18.940;2023-07-31T01:30:11;1.85;;;1.75;;
65753;SDS011;69207;47.502;18.940;2023-07-31T01:31:23;2.72;;;2.20;;
65753;SDS011;69207;47.502;18.940;2023-07-31T01:32:28;3.00;;;2.70;;
65753;SDS011;69207;47.502;18.940;2023-07-31T01:33:31;3.58;;;1.95;;
65753;SDS011;69207;47.502;18.940;2023-07-31T01:34:34;2.28;;;1.83;;
65753;SDS011;69207;47.502;18.940;2023-07-31T01:35:39;2.30;;;1.92;;
65753;SDS011;69207;47.502;18.940;2023-07-31T01:36:44;2.67;;;2.42;;
65753;SDS011;69207;47.502;18.940;2023-07-31T01:37:47;2.78;;;1.80;;
65753;SDS011;69207;47.502;18.940;2023-07-31T01:38:51;5.40;;;2.10;;
65753;SDS011;69207;47.502;18.940;2023-07-31T01:39:54;3.92;;;2.42;;
65753;SDS011;69207;47.502;18.940;2023-07-31T01:40:57;2.50;;;2.10;;
65753;SDS011;69207;47.502;18.940;2023-07-31T01:42:00;5.90;;;2.12;;
65753;SDS011;69207;47.502;18.940;2023-07-31T01:43:03;3.05;;;2.17;;
65753;SDS011;69207;47.502;18.940;2023-07-31T01:44:06;3.20;;;2.22;;
65753;SDS011;69207;47.502;18.940;2023-07-31T01:45:10;3.35;;;2.30;;
65753;SDS011;69207;47.502;18.940;2023-07-31T01:46:13;4.72;;;2.10;;
65753;SDS011;69207;47.502;18.940;2023-07-31T01:47:16;3.17;;;2.00;;
65753;SDS011;69207;47.502;18.940;2023-07-31T01:48:19;2.72;;;2.20;;
65753;SDS011;69207;47.502;18.940;2023-07-31T01:49:22;3.33;;;2.28;;
65753;SDS011;69207;47.502;18.940;2023-07-31T01:50:25;3.28;;;2.17;;
65753;SDS011;69207;47.502;18.940;2023-07-31T01:51:28;2.83;;;1.90;;
65753;SDS011;69207;47.502;18.940;2023-07-31T01:52:31;2.78;;;2.20;;
65753;SDS011;69207;47.502;18.940;2023-07-31T01:53:34;3.90;;;2.17;;
65753;SDS011;69207;47.502;18.940;2023-07-31T01:54:37;2.60;;;2.00;;
65753;SDS011;69207;47.502;18.940;2023-07-31T01:55:40;2.78;;;2.10;;
65753;SDS011;69207;47.502;18.940;2023-07-31T01:56:43;2.20;;;1.83;;
65753;SDS011;69207;47.502;18.940;2023-07-31T01:57:46;4.97;;;1.98;;
65753;SDS011;69207;47.502;18.940;2023-07-31T01:58:51;3.45;;;1.80;;
65753;SDS011;69207;47.502;18.940;2023-07-31T01:59:53;1.92;;;1.70;;
65753;SDS011;69207;47.502;18.940;2023-07-31T02:00:57;2.40;;;1.98;;
65753;SDS011;69207;47.502;18.940;2023-07-31T02:02:00;1.80;;;1.70;;
65753;SDS011;69207;47.502;18.940;2023-07-31T02:03:03;2.67;;;2.00;;
65753;SDS011;69207;47.502;18.940;2023-07-31T02:04:06;2.37;;;1.98;;
65753;SDS011;69207;47.502;18.940;2023-07-31T02:05:09;2.12;;;1.60;;
65753;SDS011;69207;47.502;18.940;2023-07-31T02:06:12;2.95;;;2.12;;
65753;SDS011;69207;47.502;18.940;2023-07-31T02:07:15;3.80;;;1.95;;
65753;SDS011;69207;47.502;18.940;2023-07-31T02:08:18;3.83;;;2.10;;
65753;SDS011;69207;47.502;18.940;2023-07-31T02:09:21;5.90;;;2.00;;
65753;SDS011;69207;47.502;18.940;2023-07-31T02:10:24;2.83;;;1.80;;
65753;SDS011;69207;47.502;18.940;2023-07-31T02:11:27;2.10;;;1.55;;
65753;SDS011;69207;47.502;18.940;2023-07-31T02:12:30;3.58;;;1.87;;
65753;SDS011;69207;47.502;18.940;2023-07-31T02:13:34;2.60;;;1.77;;
65753;SDS011;69207;47.502;18.940;2023-07-31T02:14:37;2.97;;;2.00;;
65753;SDS011;69207;47.502;18.940;2023-07-31T02:15:40;3.20;;;1.90;;
65753;SDS011;69207;47.502;18.940;2023-07-31T02:16:43;6.07;;;2.00;;
65753;SDS011;69207;47.502;18.940;2023-07-31T02:17:46;1.92;;;1.75;;
65753;SDS011;69207;47.502;18.940;2023-07-31T02:18:49;5.28;;;2.10;;
65753;SDS011;69207;47.502;18.940;2023-07-31T02:19:52;4.45;;;2.10;;
65753;SDS011;69207;47.502;18.940;2023-07-31T02:20:55;4.05;;;2.33;;
65753;SDS011;69207;47.502;18.940;2023-07-31T02:21:58;2.47;;;1.83;;
65753;SDS011;69207;47.502;18.940;2023-07-31T02:23:02;2.70;;;2.05;;
65753;SDS011;69207;47.502;18.940;2023-07-31T02:24:05;3.87;;;2.03;;
65753;SDS011;69207;47.502;18.940;2023-07-31T02:25:08;2.35;;;1.87;;
65753;SDS011;69207;47.502;18.940;2023-07-31T02:26:11;1.92;;;1.73;;
65753;SDS011;69207;47.502;18.940;2023-07-31T02:27:14;2.92;;;1.92;;
65753;SDS011;69207;47.502;18.940;2023-07-31T02:28:17;2.15;;;1.87;;
65753;SDS011;69207;47.502;18.940;2023-07-31T02:29:20;5.32;;;2.08;;
65753;SDS011;69207;47.502;18.940;2023-07-31T02:30:23;2.90;;;1.85;;
65753;SDS011;69207;47.502;18.940;2023-07-31T02:31:26;3.83;;;1.98;;
65753;SDS011;69207;47.502;18.940;2023-07-31T02:32:29;2.30;;;1.90;;
65753;SDS011;69207;47.502;18.940;2023-07-31T02:33:32;3.90;;;1.67;;
65753;SDS011;69207;47.502;18.940;2023-07-31T02:34:35;2.12;;;1.83;;
65753;SDS011;69207;47.502;18.940;2023-07-31T02:35:38;2.25;;;2.00;;
65753;SDS011;69207;47.502;18.940;2023-07-31T02:36:41;2.95;;;1.87;;
65753;SDS011;69207;47.502;18.940;2023-07-31T02:37:44;5.00;;;1.73;;
65753;SDS011;69207;47.502;18.940;2023-07-31T02:38:47;4.60;;;1.85;;
65753;SDS011;69207;47.502;18.940;2023-07-31T02:39:50;2.62;;;1.90;;
65753;SDS011;69207;47.502;18.940;2023-07-31T02:40:53;3.55;;;1.80;;
65753;SDS011;69207;47.502;18.940;2023-07-31T02:41:56;1.98;;;1.60;;
65753;SDS011;69207;47.502;18.940;2023-07-31T02:42:59;4.07;;;1.85;;
65753;SDS011;69207;47.502;18.940;2023-07-31T02:44:02;4.15;;;2.10;;
65753;SDS011;69207;47.502;18.940;2023-07-31T02:45:05;3.85;;;2.45;;
65753;SDS011;69207;47.502;18.940;2023-07-31T02:46:09;4.43;;;1.87;;
65753;SDS011;69207;47.502;18.940;2023-07-31T02:47:12;3.17;;;2.20;;
65753;SDS011;69207;47.502;18.940;2023-07-31T02:48:15;1.87;;;1.65;;
65753;SDS011;69207;47.502;18.940;2023-07-31T02:49:18;1.92;;;1.73;;
65753;SDS011;69207;47.502;18.940;2023-07-31T02:50:21;2.42;;;1.90;;
65753;SDS011;69207;47.502;18.940;2023-07-31T02:51:24;2.85;;;2.00;;
65753;SDS011;69207;47.502;18.940;2023-07-31T02:52:27;2.10;;;1.85;;
65753;SDS011;69207;47.502;18.940;2023-07-31T02:53:30;3.33;;;1.90;;
65753;SDS011;69207;47.502;18.940;2023-07-31T02:54:33;3.78;;;2.00;;
65753;SDS011;69207;47.502;18.940;2023-07-31T02:55:36;8.93;;;2.05;;
65753;SDS011;69207;47.502;18.940;2023-07-31T02:56:39;3.78;;;2.10;;
65753;SDS011;69207;47.502;18.940;2023-07-31T02:57:42;5.45;;;1.85;;
65753;SDS011;69207;47.502;18.940;2023-07-31T02:58:45;1.70;;;1.60;;
65753;SDS011;69207;47.502;18.940;2023-07-31T02:59:49;4.25;;;2.00;;
65753;SDS011;69207;47.502;18.940;2023-07-31T03:00:52;2.67;;;1.92;;
65753;SDS011;69207;47.502;18.940;2023-07-31T03:01:55;2.78;;;2.00;;
65753;SDS011;69207;47.502;18.940;2023-07-31T03:02:58;3.10;;;2.00;;
65753;SDS011;69207;47.502;18.940;2023-07-31T03:04:01;2.45;;;1.80;;
65753;SDS011;69207;47.502;18.940;2023-07-31T03:05:04;2.37;;;2.00;;
65753;SDS011;69207;47.502;18.940;2023-07-31T03:06:07;2.15;;;1.90;;
65753;SDS011;69207;47.502;18.940;2023-07-31T03:07:10;3.58;;;1.98;;
65753;SDS011;69207;47.502;18.940;2023-07-31T03:08:13;2.85;;;1.85;;
65753;SDS011;69207;47.502;18.940;2023-07-31T03:09:16;4.55;;;1.80;;
65753;SDS011;69207;47.502;18.940;2023-07-31T03:10:19;3.37;;;2.15;;
65753;SDS011;69207;47.502;18.940;2023-07-31T03:11:22;2.50;;;1.95;;
65753;SDS011;69207;47.502;18.940;2023-07-31T03:12:25;3.30;;;1.92;;
65753;SDS011;69207;47.502;18.940;2023-07-31T03:13:28;3.83;;;1.52;;
65753;SDS011;69207;47.502;18.940;2023-07-31T03:14:31;2.35;;;1.77;;
65753;SDS011;69207;47.502;18.940;2023-07-31T03:15:35;4.50;;;2.00;;
65753;SDS011;69207;47.502;18.940;2023-07-31T03:16:38;3.67;;;2.05;;
65753;SDS011;69207;47.502;18.940;2023-07-31T03:17:41;2.10;;;1.77;;
65753;SDS011;69207;47.502;18.940;2023-07-31T03:18:44;2.95;;;2.17;;
65753;SDS011;69207;47.502;18.940;2023-07-31T03:19:47;2.42;;;2.05;;
65753;SDS011;69207;47.502;18.940;2023-07-31T03:20:50;2.58;;;1.80;;
65753;SDS011;69207;47.502;18.940;2023-07-31T03:21:53;2.05;;;1.50;;
65753;SDS011;69207;47.502;18.940;2023-07-31T03:22:56;2.67;;;1.60;;
65753;SDS011;69207;47.502;18.940;2023-07-31T03:23:59;3.40;;;2.05;;
65753;SDS011;69207;47.502;18.940;2023-07-31T03:25:02;7.22;;;1.60;;
65753;SDS011;69207;47.502;18.940;2023-07-31T03:26:07;2.60;;;1.95;;
65753;SDS011;69207;47.502;18.940;2023-07-31T03:27:10;2.20;;;1.70;;
65753;SDS011;69207;47.502;18.940;2023-07-31T03:28:13;1.92;;;1.60;;
65753;SDS011;69207;47.502;18.940;2023-07-31T03:29:16;2.55;;;1.80;;
65753;SDS011;69207;47.502;18.940;2023-07-31T03:30:19;3.05;;;1.77;;
65753;SDS011;69207;47.502;18.940;2023-07-31T03:31:22;1.75;;;1.60;;
65753;SDS011;69207;47.502;18.940;2023-07-31T03:32:25;2.15;;;1.83;;
65753;SDS011;69207;47.502;18.940;2023-07-31T03:33:28;2.15;;;1.65;;
65753;SDS011;69207;47.502;18.940;2023-07-31T03:34:31;2.22;;;1.60;;
65753;SDS011;69207;47.502;18.940;2023-07-31T03:35:34;1.95;;;1.67;;
65753;SDS011;69207;47.502;18.940;2023-07-31T03:36:37;4.35;;;1.70;;
65753;SDS011;69207;47.502;18.940;2023-07-31T03:37:40;1.90;;;1.70;;
65753;SDS011;69207;47.502;18.940;2023-07-31T03:38:44;2.58;;;1.70;;
65753;SDS011;69207;47.502;18.940;2023-07-31T03:39:47;4.37;;;1.60;;
65753;SDS011;69207;47.502;18.940;2023-07-31T03:40:50;2.40;;;1.58;;
65753;SDS011;69207;47.502;18.940;2023-07-31T03:41:53;1.73;;;1.62;;
65753;SDS011;69207;47.502;18.940;2023-07-31T03:42:56;1.80;;;1.65;;
65753;SDS011;69207;47.502;18.940;2023-07-31T03:43:58;2.17;;;1.42;;
65753;SDS011;69207;47.502;18.940;2023-07-31T03:45:01;3.40;;;1.58;;
65753;SDS011;69207;47.502;18.940;2023-07-31T03:46:05;1.85;;;1.70;;
65753;SDS011;69207;47.502;18.940;2023-07-31T03:47:08;1.80;;;1.60;;
65753;SDS011;69207;47.502;18.940;2023-07-31T03:48:11;2.62;;;1.23;;
65753;SDS011;69207;47.502;18.940;2023-07-31T03:49:14;2.17;;;1.45;;
65753;SDS011;69207;47.502;18.940;2023-07-31T03:50:17;1.65;;;1.40;;
65753;SDS011;69207;47.502;18.940;2023-07-31T03:51:20;2.37;;;1.50;;
65753;SDS011;69207;47.502;18.940;2023-07-31T03:52:23;2.83;;;1.52;;
65753;SDS011;69207;47.502;18.940;2023-07-31T03:53:26;1.73;;;1.50;;
65753;SDS011;69207;47.502;18.940;2023-07-31T03:54:29;2.85;;;1.60;;
65753;SDS011;69207;47.502;18.940;2023-07-31T03:55:32;3.50;;;1.33;;
65753;SDS011;69207;47.502;18.940;2023-07-31T03:56:36;1.62;;;1.52;;
65753;SDS011;69207;47.502;18.940;2023-07-31T03:57:41;3.00;;;1.42;;
65753;SDS011;69207;47.502;18.940;2023-07-31T03:58:44;3.87;;;2.05;;
65753;SDS011;69207;47.502;18.940;2023-07-31T03:59:47;1.70;;;1.60;;
65753;SDS011;69207;47.502;18.940;2023-07-31T04:00:50;1.77;;;1.40;;
65753;SDS011;69207;47.502;18.940;2023-07-31T04:01:53;2.85;;;1.60;;
65753;SDS011;69207;47.502;18.940;2023-07-31T04:02:56;3.40;;;1.70;;
65753;SDS011;69207;47.502;18.940;2023-07-31T04:03:59;3.08;;;1.50;;
65753;SDS011;69207;47.502;18.940;2023-07-31T04:05:02;4.65;;;1.70;;
65753;SDS011;69207;47.502;18.940;2023-07-31T04:06:05;1.70;;;1.58;;
65753;SDS011;69207;47.502;18.940;2023-07-31T04:07:09;2.83;;;1.50;;
65753;SDS011;69207;47.502;18.940;2023-07-31T04:08:12;1.70;;;1.25;;
65753;SDS011;69207;47.502;18.940;2023-07-31T04:09:15;2.35;;;1.65;;
65753;SDS011;69207;47.502;18.940;2023-07-31T04:10:18;2.65;;;1.52;;
65753;SDS011;69207;47.502;18.940;2023-07-31T04:11:21;5.37;;;1.45;;
65753;SDS011;69207;47.502;18.940;2023-07-31T04:12:24;1.48;;;1.37;;
65753;SDS011;69207;47.502;18.940;2023-07-31T04:13:28;4.05;;;1.45;;
65753;SDS011;69207;47.502;18.940;2023-07-31T04:14:32;3.60;;;1.60;;
65753;SDS011;69207;47.502;18.940;2023-07-31T04:15:35;1.77;;;1.60;;
65753;SDS011;69207;47.502;18.940;2023-07-31T04:16:38;3.10;;;1.33;;
65753;SDS011;69207;47.502;18.940;2023-07-31T04:17:42;2.42;;;1.52;;
65753;SDS011;69207;47.502;18.940;2023-07-31T04:18:45;1.58;;;1.40;;
65753;SDS011;69207;47.502;18.940;2023-07-31T04:19:48;1.58;;;1.40;;
65753;SDS011;69207;47.502;18.940;2023-07-31T04:20:51;3.50;;;1.50;;
65753;SDS011;69207;47.502;18.940;2023-07-31T04:21:54;2.12;;;1.35;;
65753;SDS011;69207;47.502;18.940;2023-07-31T04:22:57;6.97;;;1.50;;
65753;SDS011;69207;47.502;18.940;2023-07-31T04:24:00;2.15;;;1.50;;
65753;SDS011;69207;47.502;18.940;2023-07-31T04:25:03;1.75;;;1.50;;
65753;SDS011;69207;47.502;18.940;2023-07-31T04:26:07;1.75;;;1.45;;
65753;SDS011;69207;47.502;18.940;2023-07-31T04:27:09;2.78;;;1.77;;
65753;SDS011;69207;47.502;18.940;2023-07-31T04:28:12;1.87;;;1.48;;
65753;SDS011;69207;47.502;18.940;2023-07-31T04:29:15;6.07;;;1.42;;
65753;SDS011;69207;47.502;18.940;2023-07-31T04:30:18;1.60;;;1.48;;
65753;SDS011;69207;47.502;18.940;2023-07-31T04:31:21;2.05;;;1.60;;
65753;SDS011;69207;47.502;18.940;2023-07-31T04:32:25;1.37;;;1.27;;
65753;SDS011;69207;47.502;18.940;2023-07-31T04:33:28;1.87;;;1.60;;
65753;SDS011;69207;47.502;18.940;2023-07-31T04:34:31;2.45;;;1.50;;
65753;SDS011;69207;47.502;18.940;2023-07-31T04:35:34;2.33;;;1.42;;
65753;SDS011;69207;47.502;18.940;2023-07-31T04:36:37;2.53;;;1.40;;
65753;SDS011;69207;47.502;18.940;2023-07-31T04:37:41;1.40;;;1.23;;
65753;SDS011;69207;47.502;18.940;2023-07-31T04:38:44;1.42;;;1.27;;
65753;SDS011;69207;47.502;18.940;2023-07-31T04:39:47;3.47;;;1.30;;
65753;SDS011;69207;47.502;18.940;2023-07-31T04:40:50;2.58;;;1.20;;
65753;SDS011;69207;47.502;18.940;2023-07-31T04:41:53;3.58;;;1.25;;
65753;SDS011;69207;47.502;18.940;2023-07-31T04:42:56;3.00;;;1.20;;
65753;SDS011;69207;47.502;18.940;2023-07-31T04:43:59;1.17;;;1.08;;
65753;SDS011;69207;47.502;18.940;2023-07-31T04:45:04;1.92;;;1.40;;
65753;SDS011;69207;47.502;18.940;2023-07-31T04:46:07;1.67;;;1.33;;
65753;SDS011;69207;47.502;18.940;2023-07-31T04:47:10;2.87;;;1.27;;
65753;SDS011;69207;47.502;18.940;2023-07-31T04:48:14;1.87;;;1.12;;
65753;SDS011;69207;47.502;18.940;2023-07-31T04:49:17;1.40;;;1.30;;
65753;SDS011;69207;47.502;18.940;2023-07-31T04:50:20;2.03;;;1.33;;
65753;SDS011;69207;47.502;18.940;2023-07-31T04:51:23;1.60;;;1.30;;
65753;SDS011;69207;47.502;18.940;2023-07-31T04:52:27;1.58;;;1.25;;
65753;SDS011;69207;47.502;18.940;2023-07-31T04:53:30;1.35;;;1.17;;
65753;SDS011;69207;47.502;18.940;2023-07-31T04:54:33;1.85;;;1.30;;
65753;SDS011;69207;47.502;18.940;2023-07-31T04:55:36;1.50;;;1.17;;
65753;SDS011;69207;47.502;18.940;2023-07-31T04:56:39;2.30;;;1.27;;
65753;SDS011;69207;47.502;18.940;2023-07-31T04:57:42;3.60;;;1.30;;
65753;SDS011;69207;47.502;18.940;2023-07-31T04:58:45;2.03;;;1.50;;
65753;SDS011;69207;47.502;18.940;2023-07-31T04:59:48;2.65;;;1.35;;
65753;SDS011;69207;47.502;18.940;2023-07-31T05:00:53;2.47;;;1.30;;
65753;SDS011;69207;47.502;18.940;2023-07-31T05:01:55;2.37;;;1.30;;
65753;SDS011;69207;47.502;18.940;2023-07-31T05:02:59;4.25;;;1.42;;
65753;SDS011;69207;47.502;18.940;2023-07-31T05:04:02;6.60;;;1.40;;
65753;SDS011;69207;47.502;18.940;2023-07-31T05:05:05;1.42;;;1.05;;
65753;SDS011;69207;47.502;18.940;2023-07-31T05:06:08;2.53;;;1.30;;
65753;SDS011;69207;47.502;18.940;2023-07-31T05:07:11;1.40;;;1.30;;
65753;SDS011;69207;47.502;18.940;2023-07-31T05:08:14;2.40;;;1.33;;
65753;SDS011;69207;47.502;18.940;2023-07-31T05:09:20;3.83;;;1.45;;
65753;SDS011;69207;47.502;18.940;2023-07-31T05:10:22;3.75;;;1.40;;
65753;SDS011;69207;47.502;18.940;2023-07-31T05:11:26;2.95;;;1.67;;
65753;SDS011;69207;47.502;18.940;2023-07-31T05:12:28;4.15;;;1.33;;
65753;SDS011;69207;47.502;18.940;2023-07-31T05:13:31;1.73;;;1.30;;
65753;SDS011;69207;47.502;18.940;2023-07-31T05:14:35;1.85;;;1.40;;
65753;SDS011;69207;47.502;18.940;2023-07-31T05:15:38;3.00;;;1.50;;
65753;SDS011;69207;47.502;18.940;2023-07-31T05:16:41;2.10;;;1.20;;
65753;SDS011;69207;47.502;18.940;2023-07-31T05:17:44;3.00;;;1.40;;
65753;SDS011;69207;47.502;18.940;2023-07-31T05:18:47;2.78;;;1.55;;
65753;SDS011;69207;47.502;18.940;2023-07-31T05:19:50;2.00;;;1.62;;
65753;SDS011;69207;47.502;18.940;2023-07-31T05:20:53;2.62;;;1.30;;
65753;SDS011;69207;47.502;18.940;2023-07-31T05:21:56;2.00;;;1.42;;
65753;SDS011;69207;47.502;18.940;2023-07-31T05:22:59;5.35;;;1.75;;
65753;SDS011;69207;47.502;18.940;2023-07-31T05:24:02;2.53;;;1.10;;
65753;SDS011;69207;47.502;18.940;2023-07-31T05:25:05;4.68;;;1.40;;
65753;SDS011;69207;47.502;18.940;2023-07-31T05:26:08;1.95;;;1.10;;
65753;SDS011;69207;47.502;18.940;2023-07-31T05:27:12;2.22;;;1.35;;
65753;SDS011;69207;47.502;18.940;2023-07-31T05:28:17;4.25;;;1.35;;
65753;SDS011;69207;47.502;18.940;2023-07-31T05:29:20;3.45;;;1.52;;
65753;SDS011;69207;47.502;18.940;2023-07-31T05:30:23;2.42;;;1.33;;
65753;SDS011;69207;47.502;18.940;2023-07-31T05:31:26;2.37;;;1.30;;
65753;SDS011;69207;47.502;18.940;2023-07-31T05:32:29;1.65;;;1.50;;
65753;SDS011;69207;47.502;18.940;2023-07-31T05:33:32;3.92;;;1.33;;
65753;SDS011;69207;47.502;18.940;2023-07-31T05:34:35;2.28;;;1.23;;
65753;SDS011;69207;47.502;18.940;2023-07-31T05:35:38;4.07;;;1.62;;
65753;SDS011;69207;47.502;18.940;2023-07-31T05:36:42;3.75;;;1.35;;
65753;SDS011;69207;47.502;18.940;2023-07-31T05:37:45;2.25;;;1.17;;
65753;SDS011;69207;47.502;18.940;2023-07-31T05:38:48;2.10;;;1.50;;
65753;SDS011;69207;47.502;18.940;2023-07-31T05:39:51;2.58;;;1.10;;
65753;SDS011;69207;47.502;18.940;2023-07-31T05:40:54;1.48;;;1.30;;
65753;SDS011;69207;47.502;18.940;2023-07-31T05:41:57;4.75;;;1.70;;
65753;SDS011;69207;47.502;18.940;2023-07-31T05:43:00;1.62;;;1.30;;
65753;SDS011;69207;47.502;18.940;2023-07-31T05:44:03;2.75;;;1.45;;
65753;SDS011;69207;47.502;18.940;2023-07-31T05:45:06;2.78;;;1.35;;
65753;SDS011;69207;47.502;18.940;2023-07-31T05:46:10;4.10;;;1.27;;
65753;SDS011;69207;47.502;18.940;2023-07-31T05:47:14;3.80;;;1.40;;
65753;SDS011;69207;47.502;18.940;2023-07-31T05:48:17;2.00;;;1.40;;
65753;SDS011;69207;47.502;18.940;2023-07-31T05:49:20;4.32;;;1.73;;
65753;SDS011;69207;47.502;18.940;2023-07-31T05:50:25;3.40;;;1.60;;
65753;SDS011;69207;47.502;18.940;2023-07-31T05:51:29;1.75;;;1.05;;
65753;SDS011;69207;47.502;18.940;2023-07-31T05:52:32;1.52;;;1.20;;
65753;SDS011;69207;47.502;18.940;2023-07-31T05:53:35;2.00;;;1.40;;
65753;SDS011;69207;47.502;18.940;2023-07-31T05:54:41;4.25;;;1.98;;
65753;SDS011;69207;47.502;18.940;2023-07-31T05:55:45;2.15;;;1.30;;
65753;SDS011;69207;47.502;18.940;2023-07-31T05:56:48;1.55;;;1.40;;
65753;SDS011;69207;47.502;18.940;2023-07-31T05:57:51;1.98;;;1.30;;
65753;SDS011;69207;47.502;18.940;2023-07-31T05:58:54;2.37;;;1.33;;
65753;SDS011;69207;47.502;18.940;2023-07-31T05:59:57;3.22;;;1.23;;
65753;SDS011;69207;47.502;18.940;2023-07-31T06:01:00;2.60;;;1.27;;
65753;SDS011;69207;47.502;18.940;2023-07-31T06:02:03;1.60;;;1.30;;
65753;SDS011;69207;47.502;18.940;2023-07-31T06:03:07;1.95;;;1.23;;
65753;SDS011;69207;47.502;18.940;2023-07-31T06:04:10;3.45;;;1.40;;
65753;SDS011;69207;47.502;18.940;2023-07-31T06:05:13;4.78;;;1.42;;
65753;SDS011;69207;47.502;18.940;2023-07-31T06:06:17;3.62;;;1.40;;
65753;SDS011;69207;47.502;18.940;2023-07-31T06:07:20;3.58;;;1.45;;
65753;SDS011;69207;47.502;18.940;2023-07-31T06:08:23;2.00;;;1.37;;
65753;SDS011;69207;47.502;18.940;2023-07-31T06:09:26;2.75;;;1.20;;
65753;SDS011;69207;47.502;18.940;2023-07-31T06:10:29;3.10;;;1.30;;
65753;SDS011;69207;47.502;18.940;2023-07-31T06:11:32;2.12;;;1.40;;
65753;SDS011;69207;47.502;18.940;2023-07-31T06:12:35;3.50;;;1.27;;
65753;SDS011;69207;47.502;18.940;2023-07-31T06:13:38;1.58;;;1.17;;
65753;SDS011;69207;47.502;18.940;2023-07-31T06:14:45;3.33;;;1.45;;
65753;SDS011;69207;47.502;18.940;2023-07-31T06:15:48;5.37;;;1.33;;
65753;SDS011;69207;47.502;18.940;2023-07-31T06:16:51;4.03;;;1.40;;
65753;SDS011;69207;47.502;18.940;2023-07-31T06:17:54;4.43;;;1.40;;
65753;SDS011;69207;47.502;18.940;2023-07-31T06:18:58;4.00;;;1.70;;
65753;SDS011;69207;47.502;18.940;2023-07-31T06:20:01;4.15;;;1.48;;
65753;SDS011;69207;47.502;18.940;2023-07-31T06:21:06;2.28;;;1.50;;
65753;SDS011;69207;47.502;18.940;2023-07-31T06:22:09;3.25;;;1.48;;
65753;SDS011;69207;47.502;18.940;2023-07-31T06:23:12;3.22;;;1.50;;
65753;SDS011;69207;47.502;18.940;2023-07-31T06:24:14;2.12;;;1.30;;